sensor_id;sensor_type;location;lat;lon;timestamp;pressure;altitude;pressure_sealevel;temperature;humidity
71573;BME280;59408;51.032;9.410;2023-05-20T00:01:41;99627.00;;;10.17;83.13
71573;BME280;59408;51.032;9.410;2023-05-20T00:04:08;99627.00;;;10.26;83.83
71573;BME280;59408;51.032;9.410;2023-05-20T00:06:34;99622.50;;;10.30;83.28
71573;BME280;59408;51.032;9.410;2023-05-20T00:09:01;99620.09;;;10.37;82.20
71573;BME280;59408;51.032;9.410;2023-05-20T00:11:28;99622.34;;;10.35;82.53
71573;BME280;59408;51.032;9.410;2023-05-20T00:13:56;99620.41;;;10.36;83.17
71573;BME280;59408;51.032;9.410;2023-05-20T00:16:22;99616.72;;;10.32;84.04
71573;BME280;59408;51.032;9.410;2023-05-20T00:18:49;99613.03;;;10.36;83.97
71573;BME280;59408;51.032;9.410;2023-05-20T00:21:16;99616.88;;;10.35;83.66
71573;BME280;59408;51.032;9.410;2023-05-20T00:23:42;99608.69;;;10.35;83.67
71573;BME280;59408;51.032;9.410;2023-05-20T00:26:09;99610.31;;;10.36;82.91
71573;BME280;59408;51.032;9.410;2023-05-20T00:28:35;99608.84;;;10.39;83.29
71573;BME280;59408;51.032;9.410;2023-05-20T00:31:04;99602.59;;;10.38;83.32
71573;BME280;59408;51.032;9.410;2023-05-20T00:33:30;99596.81;;;10.40;82.78
71573;BME280;59408;51.032;9.410;2023-05-20T00:35:57;99592.03;;;10.37;82.80
71573;BME280;59408;51.032;9.410;2023-05-20T00:38:24;99592.16;;;10.40;82.82
71573;BME280;59408;51.032;9.410;2023-05-20T00:40:50;99591.34;;;10.40;83.44
71573;BME280;59408;51.032;9.410;2023-05-20T00:43:17;99586.69;;;10.40;83.37
71573;BME280;59408;51.032;9.410;2023-05-20T00:45:44;99597.28;;;10.42;82.01
71573;BME280;59408;51.032;9.410;2023-05-20T00:48:12;99589.44;;;10.40;81.56
71573;BME280;59408;51.032;9.410;2023-05-20T00:50:39;99587.50;;;10.41;81.31
71573;BME280;59408;51.032;9.410;2023-05-20T00:53:06;99579.50;;;10.36;81.78
71573;BME280;59408;51.032;9.410;2023-05-20T00:55:34;99584.31;;;10.30;81.77
71573;BME280;59408;51.032;9.410;2023-05-20T00:58:01;99582.72;;;10.29;82.54
71573;BME280;59408;51.032;9.410;2023-05-20T01:00:27;99587.03;;;10.30;83.44
71573;BME280;59408;51.032;9.410;2023-05-20T01:02:54;99584.78;;;10.32;83.18
71573;BME280;59408;51.032;9.410;2023-05-20T01:05:22;99586.88;;;10.35;84.13
71573;BME280;59408;51.032;9.410;2023-05-20T01:07:49;99585.59;;;10.33;84.28
71573;BME280;59408;51.032;9.410;2023-05-20T01:10:15;99579.34;;;10.32;84.25
71573;BME280;59408;51.032;9.410;2023-05-20T01:12:45;99570.34;;;10.32;84.74
71573;BME280;59408;51.032;9.410;2023-05-20T01:15:14;99576.63;;;10.32;85.43
71573;BME280;59408;51.032;9.410;2023-05-20T01:17:43;99567.63;;;10.32;85.70
71573;BME280;59408;51.032;9.410;2023-05-20T01:20:12;99573.88;;;10.32;84.95
71573;BME280;59408;51.032;9.410;2023-05-20T01:22:47;99568.91;;;10.34;85.48
71573;BME280;59408;51.032;9.410;2023-05-20T01:25:14;99563.16;;;10.36;85.86
71573;BME280;59408;51.032;9.410;2023-05-20T01:27:41;99571.66;;;10.34;86.05
71573;BME280;59408;51.032;9.410;2023-05-20T01:30:08;99561.38;;;10.31;86.29
71573;BME280;59408;51.032;9.410;2023-05-20T01:32:38;99565.91;;;10.27;86.44
71573;BME280;59408;51.032;9.410;2023-05-20T01:35:06;99575.50;;;10.24;86.21
71573;BME280;59408;51.032;9.410;2023-05-20T01:37:33;99573.44;;;10.21;87.08
71573;BME280;59408;51.032;9.410;2023-05-20T01:40:04;99565.56;;;10.20;86.30
71573;BME280;59408;51.032;9.410;2023-05-20T01:42:32;99571.50;;;10.22;88.07
71573;BME280;59408;51.032;9.410;2023-05-20T01:44:59;99570.38;;;10.23;85.46
71573;BME280;59408;51.032;9.410;2023-05-20T01:47:26;99571.66;;;10.25;86.49
71573;BME280;59408;51.032;9.410;2023-05-20T01:49:53;99567.34;;;10.24;87.05
71573;BME280;59408;51.032;9.410;2023-05-20T01:52:20;99566.34;;;10.29;85.77
71573;BME280;59408;51.032;9.410;2023-05-20T01:54:47;99573.75;;;10.29;87.01
71573;BME280;59408;51.032;9.410;2023-05-20T01:57:14;99558.81;;;10.35;86.51
71573;BME280;59408;51.032;9.410;2023-05-20T01:59:41;99558.94;;;10.38;86.58
71573;BME280;59408;51.032;9.410;2023-05-20T02:02:07;99550.13;;;10.41;86.13
71573;BME280;59408;51.032;9.410;2023-05-20T02:04:34;99551.25;;;10.40;86.45
71573;BME280;59408;51.032;9.410;2023-05-20T02:07:01;99550.94;;;10.42;86.75
71573;BME280;59408;51.032;9.410;2023-05-20T02:09:27;99544.03;;;10.44;86.78
71573;BME280;59408;51.032;9.410;2023-05-20T02:11:54;99545.44;;;10.50;86.56
71573;BME280;59408;51.032;9.410;2023-05-20T02:14:22;99541.59;;;10.51;86.23
71573;BME280;59408;51.032;9.410;2023-05-20T02:16:49;99540.97;;;10.54;86.02
71573;BME280;59408;51.032;9.410;2023-05-20T02:19:15;99537.44;;;10.54;86.32
71573;BME280;59408;51.032;9.410;2023-05-20T02:21:42;99542.56;;;10.55;86.45
71573;BME280;59408;51.032;9.410;2023-05-20T02:24:09;99537.56;;;10.57;86.14
71573;BME280;59408;51.032;9.410;2023-05-20T02:26:35;99540.63;;;10.56;86.63
71573;BME280;59408;51.032;9.410;2023-05-20T02:29:02;99535.19;;;10.56;86.90
71573;BME280;59408;51.032;9.410;2023-05-20T02:31:30;99533.72;;;10.58;86.45
71573;BME280;59408;51.032;9.410;2023-05-20T02:33:56;99533.38;;;10.60;86.08
71573;BME280;59408;51.032;9.410;2023-05-20T02:36:23;99531.78;;;10.59;86.33
71573;BME280;59408;51.032;9.410;2023-05-20T02:38:50;99522.00;;;10.58;86.62
71573;BME280;59408;51.032;9.410;2023-05-20T02:41:16;99529.38;;;10.57;87.06
71573;BME280;59408;51.032;9.410;2023-05-20T02:43:43;99527.00;;;10.56;86.70
71573;BME280;59408;51.032;9.410;2023-05-20T02:46:09;99527.44;;;10.58;86.56
71573;BME280;59408;51.032;9.410;2023-05-20T02:48:38;99518.47;;;10.57;86.43
71573;BME280;59408;51.032;9.410;2023-05-20T02:51:04;99525.03;;;10.56;87.05
71573;BME280;59408;51.032;9.410;2023-05-20T02:53:31;99525.41;;;10.55;86.88
71573;BME280;59408;51.032;9.410;2023-05-20T02:55:58;99529.56;;;10.52;87.37
71573;BME280;59408;51.032;9.410;2023-05-20T02:58:24;99534.38;;;10.55;87.21
71573;BME280;59408;51.032;9.410;2023-05-20T03:00:51;99534.38;;;10.55;87.23
71573;BME280;59408;51.032;9.410;2023-05-20T03:03:17;99535.81;;;10.53;86.89
71573;BME280;59408;51.032;9.410;2023-05-20T03:05:45;99531.97;;;10.54;87.66
71573;BME280;59408;51.032;9.410;2023-05-20T03:08:12;99536.47;;;10.50;87.74
71573;BME280;59408;51.032;9.410;2023-05-20T03:10:39;99534.88;;;10.49;87.62
71573;BME280;59408;51.032;9.410;2023-05-20T03:13:07;99535.97;;;10.48;88.05
71573;BME280;59408;51.032;9.410;2023-05-20T03:15:33;99537.47;;;10.45;88.00
71573;BME280;59408;51.032;9.410;2023-05-20T03:18:01;99541.78;;;10.46;87.85
71573;BME280;59408;51.032;9.410;2023-05-20T03:20:27;99525.44;;;10.46;88.05
71573;BME280;59408;51.032;9.410;2023-05-20T03:22:55;99532.81;;;10.46;88.19
71573;BME280;59408;51.032;9.410;2023-05-20T03:25:23;99537.91;;;10.47;87.49
71573;BME280;59408;51.032;9.410;2023-05-20T03:27:50;99534.88;;;10.49;87.84
71573;BME280;59408;51.032;9.410;2023-05-20T03:30:16;99541.13;;;10.49;87.73
71573;BME280;59408;51.032;9.410;2023-05-20T03:32:43;99543.03;;;10.49;88.33
71573;BME280;59408;51.032;9.410;2023-05-20T03:35:10;99537.91;;;10.47;88.21
71573;BME280;59408;51.032;9.410;2023-05-20T03:37:37;99542.25;;;10.48;87.38
71573;BME280;59408;51.032;9.410;2023-05-20T03:40:09;99543.03;;;10.49;87.57
71573;BME280;59408;51.032;9.410;2023-05-20T03:42:36;99544.16;;;10.48;89.09
71573;BME280;59408;51.032;9.410;2023-05-20T03:45:03;99545.44;;;10.50;87.03
71573;BME280;59408;51.032;9.410;2023-05-20T03:47:30;99540.31;;;10.49;88.07
71573;BME280;59408;51.032;9.410;2023-05-20T03:49:56;99538.72;;;10.48;88.39
71573;BME280;59408;51.032;9.410;2023-05-20T03:52:23;99538.72;;;10.48;88.43
71573;BME280;59408;51.032;9.410;2023-05-20T03:54:49;99533.25;;;10.48;88.34
71573;BME280;59408;51.032;9.410;2023-05-20T03:57:17;99531.34;;;10.48;89.89
71573;BME280;59408;51.032;9.410;2023-05-20T03:59:44;99535.53;;;10.46;89.89
71573;BME280;59408;51.032;9.410;2023-05-20T04:02:11;99532.00;;;10.45;88.88
71573;BME280;59408;51.032;9.410;2023-05-20T04:04:37;99535.53;;;10.46;88.27
71573;BME280;59408;51.032;9.410;2023-05-20T04:07:04;99529.72;;;10.47;88.57
71573;BME280;59408;51.032;9.410;2023-05-20T04:09:31;99534.88;;;10.49;88.57
71573;BME280;59408;51.032;9.410;2023-05-20T04:11:57;99539.19;;;10.50;89.52
71573;BME280;59408;51.032;9.410;2023-05-20T04:14:25;99539.19;;;10.50;89.28
71573;BME280;59408;51.032;9.410;2023-05-20T04:16:52;99538.41;;;10.49;89.95
71573;BME280;59408;51.032;9.410;2023-05-20T04:19:19;99532.47;;;10.47;90.12
71573;BME280;59408;51.032;9.410;2023-05-20T04:21:45;99533.41;;;10.51;89.89
71573;BME280;59408;51.032;9.410;2023-05-20T04:24:12;99529.88;;;10.51;89.23
71573;BME280;59408;51.032;9.410;2023-05-20T04:26:38;99537.75;;;10.52;89.54
71573;BME280;59408;51.032;9.410;2023-05-20T04:29:05;99532.63;;;10.51;89.93
71573;BME280;59408;51.032;9.410;2023-05-20T04:31:33;99540.81;;;10.51;90.57
71573;BME280;59408;51.032;9.410;2023-05-20T04:34:00;99536.94;;;10.52;90.41
71573;BME280;59408;51.032;9.410;2023-05-20T04:36:26;99541.59;;;10.51;90.82
71573;BME280;59408;51.032;9.410;2023-05-20T04:38:53;99535.03;;;10.52;90.43
71573;BME280;59408;51.032;9.410;2023-05-20T04:41:20;99542.09;;;10.53;89.83
71573;BME280;59408;51.032;9.410;2023-05-20T04:43:46;99542.09;;;10.53;89.93
71573;BME280;59408;51.032;9.410;2023-05-20T04:46:13;99551.88;;;10.54;90.87
71573;BME280;59408;51.032;9.410;2023-05-20T04:48:41;99551.06;;;10.54;90.94
71573;BME280;59408;51.032;9.410;2023-05-20T04:51:08;99544.00;;;10.53;90.65
71573;BME280;59408;51.032;9.410;2023-05-20T04:53:34;99542.09;;;10.53;90.56
71573;BME280;59408;51.032;9.410;2023-05-20T04:56:01;99540.28;;;10.57;90.73
71573;BME280;59408;51.032;9.410;2023-05-20T04:58:28;99534.03;;;10.57;90.17
71573;BME280;59408;51.032;9.410;2023-05-20T05:00:54;99539.66;;;10.60;89.93
71573;BME280;59408;51.032;9.410;2023-05-20T05:03:21;99534.19;;;10.60;90.11
71573;BME280;59408;51.032;9.410;2023-05-20T05:05:49;99543.97;;;10.61;90.35
71573;BME280;59408;51.032;9.410;2023-05-20T05:08:16;99542.06;;;10.62;90.32
71573;BME280;59408;51.032;9.410;2023-05-20T05:10:44;99541.72;;;10.63;90.01
71573;BME280;59408;51.032;9.410;2023-05-20T05:13:10;99539.00;;;10.63;90.73
71573;BME280;59408;51.032;9.410;2023-05-20T05:15:37;99547.63;;;10.66;90.60
71573;BME280;59408;51.032;9.410;2023-05-20T05:18:03;99547.78;;;10.69;89.68
71573;BME280;59408;51.032;9.410;2023-05-20T05:20:30;99537.19;;;10.68;90.12
71573;BME280;59408;51.032;9.410;2023-05-20T05:22:58;99541.53;;;10.69;90.10
71573;BME280;59408;51.032;9.410;2023-05-20T05:25:25;99546.34;;;10.72;90.68
71573;BME280;59408;51.032;9.410;2023-05-20T05:27:51;99524.84;;;10.70;91.25
71573;BME280;59408;51.032;9.410;2023-05-20T05:30:18;99536.41;;;10.76;90.72
71573;BME280;59408;51.032;9.410;2023-05-20T05:32:45;99535.75;;;10.79;91.01
71573;BME280;59408;51.032;9.410;2023-05-20T05:35:11;99535.56;;;10.84;90.16
71573;BME280;59408;51.032;9.410;2023-05-20T05:37:38;99534.75;;;10.92;90.55
71573;BME280;59408;51.032;9.410;2023-05-20T05:40:07;99530.38;;;10.99;90.01
71573;BME280;59408;51.032;9.410;2023-05-20T05:42:34;99535.28;;;11.06;89.51
71573;BME280;59408;51.032;9.410;2023-05-20T05:45:00;99525.78;;;11.12;89.57
71573;BME280;59408;51.032;9.410;2023-05-20T05:47:27;99528.81;;;11.19;89.01
71573;BME280;59408;51.032;9.410;2023-05-20T05:49:54;99528.13;;;11.22;88.74
71573;BME280;59408;51.032;9.410;2023-05-20T05:52:20;99535.34;;;11.27;88.79
71573;BME280;59408;51.032;9.410;2023-05-20T05:54:47;99537.06;;;11.31;87.99
71573;BME280;59408;51.032;9.410;2023-05-20T05:57:15;99547.00;;;11.36;87.70
71573;BME280;59408;51.032;9.410;2023-05-20T05:59:41;99529.63;;;11.41;88.68
71573;BME280;59408;51.032;9.410;2023-05-20T06:02:08;99531.97;;;11.51;87.85
71573;BME280;59408;51.032;9.410;2023-05-20T06:04:34;99547.69;;;11.54;86.97
71573;BME280;59408;51.032;9.410;2023-05-20T06:07:01;99540.28;;;11.54;87.35
71573;BME280;59408;51.032;9.410;2023-05-20T06:09:27;99539.16;;;11.55;87.24
71573;BME280;59408;51.032;9.410;2023-05-20T06:11:54;99538.38;;;11.55;88.42
71573;BME280;59408;51.032;9.410;2023-05-20T06:14:22;99537.56;;;11.54;88.08
71573;BME280;59408;51.032;9.410;2023-05-20T06:16:48;99540.09;;;11.59;87.26
71573;BME280;59408;51.032;9.410;2023-05-20T06:19:15;99532.50;;;11.65;86.69
71573;BME280;59408;51.032;9.410;2023-05-20T06:21:42;99532.75;;;11.72;85.99
71573;BME280;59408;51.032;9.410;2023-05-20T06:24:09;99522.56;;;11.81;86.12
71573;BME280;59408;51.032;9.410;2023-05-20T06:26:35;99524.75;;;11.88;86.37
71573;BME280;59408;51.032;9.410;2023-05-20T06:29:02;99521.59;;;11.98;84.99
71573;BME280;59408;51.032;9.410;2023-05-20T06:31:30;99521.38;;;12.03;84.63
71573;BME280;59408;51.032;9.410;2023-05-20T06:33:57;99523.59;;;12.09;83.78
71573;BME280;59408;51.032;9.410;2023-05-20T06:36:23;99530.19;;;12.08;83.80
71573;BME280;59408;51.032;9.410;2023-05-20T06:38:50;99529.50;;;12.11;84.67
71573;BME280;59408;51.032;9.410;2023-05-20T06:41:16;99531.44;;;12.11;85.67
71573;BME280;59408;51.032;9.410;2023-05-20T06:43:43;99530.59;;;12.19;84.86
71573;BME280;59408;51.032;9.410;2023-05-20T06:46:10;99527.31;;;12.26;84.40
71573;BME280;59408;51.032;9.410;2023-05-20T06:48:38;99525.47;;;12.30;83.93
71573;BME280;59408;51.032;9.410;2023-05-20T06:51:06;99516.28;;;12.34;83.49
71573;BME280;59408;51.032;9.410;2023-05-20T06:53:33;99518.78;;;12.39;82.93
71573;BME280;59408;51.032;9.410;2023-05-20T06:56:00;99505.69;;;12.45;82.83
71573;BME280;59408;51.032;9.410;2023-05-20T06:58:26;99509.66;;;12.47;82.54
71573;BME280;59408;51.032;9.410;2023-05-20T07:00:53;99502.53;;;12.55;83.23
71573;BME280;59408;51.032;9.410;2023-05-20T07:03:19;99502.84;;;12.66;81.54
71573;BME280;59408;51.032;9.410;2023-05-20T07:05:49;99506.84;;;12.68;81.72
71573;BME280;59408;51.032;9.410;2023-05-20T07:08:16;99506.19;;;12.71;81.16
71573;BME280;59408;51.032;9.410;2023-05-20T07:10:43;99504.81;;;12.77;81.86
71573;BME280;59408;51.032;9.410;2023-05-20T07:13:10;99501.84;;;12.82;81.40
71573;BME280;59408;51.032;9.410;2023-05-20T07:15:37;99500.03;;;12.99;81.72
71573;BME280;59408;51.032;9.410;2023-05-20T07:18:04;99498.28;;;13.06;81.28
71573;BME280;59408;51.032;9.410;2023-05-20T07:20:30;99502.25;;;13.33;80.75
71573;BME280;59408;51.032;9.410;2023-05-20T07:22:58;99488.56;;;13.45;79.83
71573;BME280;59408;51.032;9.410;2023-05-20T07:25:25;99492.50;;;13.60;78.84
71573;BME280;59408;51.032;9.410;2023-05-20T07:27:51;99495.44;;;13.67;78.59
71573;BME280;59408;51.032;9.410;2023-05-20T07:30:18;99492.81;;;13.71;78.86
71573;BME280;59408;51.032;9.410;2023-05-20T07:32:44;99494.88;;;13.74;77.64
71573;BME280;59408;51.032;9.410;2023-05-20T07:35:11;99495.31;;;13.76;78.41
71573;BME280;59408;51.032;9.410;2023-05-20T07:37:38;99501.69;;;13.80;77.00
71573;BME280;59408;51.032;9.410;2023-05-20T07:40:07;99494.38;;;13.84;78.29
71573;BME280;59408;51.032;9.410;2023-05-20T07:42:34;99487.50;;;13.90;77.19
71573;BME280;59408;51.032;9.410;2023-05-20T07:45:00;99481.22;;;14.05;77.24
71573;BME280;59408;51.032;9.410;2023-05-20T07:47:27;99486.72;;;14.05;77.55
71573;BME280;59408;51.032;9.410;2023-05-20T07:49:54;99481.75;;;13.95;78.04
71573;BME280;59408;51.032;9.410;2023-05-20T07:52:20;99475.25;;;13.87;77.04
71573;BME280;59408;51.032;9.410;2023-05-20T07:54:47;99481.69;;;13.79;77.64
71573;BME280;59408;51.032;9.410;2023-05-20T07:57:15;99484.47;;;13.67;77.41
71573;BME280;59408;51.032;9.410;2023-05-20T07:59:42;99480.59;;;13.68;79.13
71573;BME280;59408;51.032;9.410;2023-05-20T08:02:08;99482.13;;;13.66;79.90
71573;BME280;59408;51.032;9.410;2023-05-20T08:04:35;99484.34;;;13.76;77.95
71573;BME280;59408;51.032;9.410;2023-05-20T08:07:02;99492.28;;;13.65;77.60
71573;BME280;59408;51.032;9.410;2023-05-20T08:09:30;99482.19;;;13.69;79.19
71573;BME280;59408;51.032;9.410;2023-05-20T08:11:56;99484.25;;;13.72;78.26
71573;BME280;59408;51.032;9.410;2023-05-20T08:14:24;99477.47;;;13.82;79.06
71573;BME280;59408;51.032;9.410;2023-05-20T08:16:51;99464.91;;;13.81;78.42
71573;BME280;59408;51.032;9.410;2023-05-20T08:19:20;99469.88;;;13.91;77.18
71573;BME280;59408;51.032;9.410;2023-05-20T08:21:47;99477.97;;;14.00;78.52
71573;BME280;59408;51.032;9.410;2023-05-20T08:24:13;99476.00;;;14.00;77.64
71573;BME280;59408;51.032;9.410;2023-05-20T08:26:40;99474.72;;;14.10;76.75
71573;BME280;59408;51.032;9.410;2023-05-20T08:29:07;99470.66;;;14.19;77.04
71573;BME280;59408;51.032;9.410;2023-05-20T08:31:35;99484.44;;;14.23;77.08
71573;BME280;59408;51.032;9.410;2023-05-20T08:34:02;99486.50;;;14.26;76.84
71573;BME280;59408;51.032;9.410;2023-05-20T08:36:28;99479.94;;;14.30;77.16
71573;BME280;59408;51.032;9.410;2023-05-20T08:38:55;99476.78;;;14.44;76.73
71573;BME280;59408;51.032;9.410;2023-05-20T08:41:21;99482.72;;;14.46;74.59
71573;BME280;59408;51.032;9.410;2023-05-20T08:43:48;99471.47;;;14.51;74.97
71573;BME280;59408;51.032;9.410;2023-05-20T08:46:17;99479.34;;;14.53;74.23
71573;BME280;59408;51.032;9.410;2023-05-20T08:48:45;99482.88;;;14.53;74.82
71573;BME280;59408;51.032;9.410;2023-05-20T08:51:13;99482.25;;;14.44;74.50
71573;BME280;59408;51.032;9.410;2023-05-20T08:53:41;99483.31;;;14.40;73.83
71573;BME280;59408;51.032;9.410;2023-05-20T08:56:08;99485.59;;;14.22;75.36
71573;BME280;59408;51.032;9.410;2023-05-20T08:58:37;99474.28;;;14.23;76.35
71573;BME280;59408;51.032;9.410;2023-05-20T09:01:05;99475.63;;;14.29;76.54
71573;BME280;59408;51.032;9.410;2023-05-20T09:03:32;99479.13;;;14.30;75.80
71573;BME280;59408;51.032;9.410;2023-05-20T09:06:04;99476.66;;;14.25;76.11
71573;BME280;59408;51.032;9.410;2023-05-20T09:08:32;99475.34;;;14.50;75.83
71573;BME280;59408;51.032;9.410;2023-05-20T09:10:59;99480.69;;;14.59;75.01
71573;BME280;59408;51.032;9.410;2023-05-20T09:13:26;99486.81;;;14.68;74.77
71573;BME280;59408;51.032;9.410;2023-05-20T09:15:53;99478.72;;;14.75;74.04
71573;BME280;59408;51.032;9.410;2023-05-20T09:18:19;99476.59;;;14.84;73.32
71573;BME280;59408;51.032;9.410;2023-05-20T09:20:50;99483.78;;;14.89;74.36
71573;BME280;59408;51.032;9.410;2023-05-20T09:23:19;99478.19;;;15.01;74.43
71573;BME280;59408;51.032;9.410;2023-05-20T09:25:48;99479.00;;;15.21;73.69
71573;BME280;59408;51.032;9.410;2023-05-20T09:28:15;99481.44;;;15.41;73.57
71573;BME280;59408;51.032;9.410;2023-05-20T09:30:41;99479.56;;;15.45;72.12
71573;BME280;59408;51.032;9.410;2023-05-20T09:33:11;99491.22;;;15.58;72.38
71573;BME280;59408;51.032;9.410;2023-05-20T09:35:37;99488.00;;;15.72;71.36
71573;BME280;59408;51.032;9.410;2023-05-20T09:38:05;99500.06;;;15.67;71.71
71573;BME280;59408;51.032;9.410;2023-05-20T09:40:33;99496.31;;;15.75;71.21
71573;BME280;59408;51.032;9.410;2023-05-20T09:43:02;99493.72;;;15.82;70.95
71573;BME280;59408;51.032;9.410;2023-05-20T09:45:29;99495.31;;;15.83;72.81
71573;BME280;59408;51.032;9.410;2023-05-20T09:47:56;99500.16;;;15.90;71.33
71573;BME280;59408;51.032;9.410;2023-05-20T09:50:23;99496.19;;;15.88;70.21
71573;BME280;59408;51.032;9.410;2023-05-20T09:52:52;99491.81;;;15.87;69.91
71573;BME280;59408;51.032;9.410;2023-05-20T09:55:20;99489.31;;;15.78;71.35
71573;BME280;59408;51.032;9.410;2023-05-20T09:57:48;99493.72;;;15.82;70.90
71573;BME280;59408;51.032;9.410;2023-05-20T10:00:15;99485.81;;;16.00;70.86
71573;BME280;59408;51.032;9.410;2023-05-20T10:02:43;99491.56;;;15.92;69.34
71573;BME280;59408;51.032;9.410;2023-05-20T10:05:15;99477.50;;;15.77;69.44
71573;BME280;59408;51.032;9.410;2023-05-20T10:08:04;99476.13;;;15.87;70.30
71573;BME280;59408;51.032;9.410;2023-05-20T10:10:43;99472.94;;;15.85;70.68
71573;BME280;59408;51.032;9.410;2023-05-20T10:13:19;99476.41;;;16.01;70.60
71573;BME280;59408;51.032;9.410;2023-05-20T10:15:54;99467.22;;;16.36;69.35
71573;BME280;59408;51.032;9.410;2023-05-20T10:18:32;99461.78;;;16.62;68.53
71573;BME280;59408;51.032;9.410;2023-05-20T10:21:02;99457.97;;;16.97;67.77
71573;BME280;59408;51.032;9.410;2023-05-20T10:23:29;99454.94;;;17.02;68.68
71573;BME280;59408;51.032;9.410;2023-05-20T10:25:57;99454.97;;;17.05;66.87
71573;BME280;59408;51.032;9.410;2023-05-20T10:28:28;99451.25;;;16.94;65.93
71573;BME280;59408;51.032;9.410;2023-05-20T10:30:55;99447.94;;;17.38;66.65
71573;BME280;59408;51.032;9.410;2023-05-20T10:33:23;99441.47;;;18.27;66.40
71573;BME280;59408;51.032;9.410;2023-05-20T10:35:50;99442.22;;;18.24;63.35
71573;BME280;59408;51.032;9.410;2023-05-20T10:38:17;99436.66;;;18.17;61.33
71573;BME280;59408;51.032;9.410;2023-05-20T10:40:43;99443.38;;;18.19;64.00
71573;BME280;59408;51.032;9.410;2023-05-20T10:43:10;99439.75;;;18.12;61.64
71573;BME280;59408;51.032;9.410;2023-05-20T10:45:53;99438.28;;;17.84;63.40
71573;BME280;59408;51.032;9.410;2023-05-20T10:48:22;99429.88;;;17.74;62.75
71573;BME280;59408;51.032;9.410;2023-05-20T10:50:48;99428.59;;;17.64;63.75
71573;BME280;59408;51.032;9.410;2023-05-20T10:53:15;99419.03;;;17.58;62.23
71573;BME280;59408;51.032;9.410;2023-05-20T10:55:58;99422.28;;;17.63;63.64
71573;BME280;59408;51.032;9.410;2023-05-20T10:58:25;99416.88;;;17.74;63.67
71573;BME280;59408;51.032;9.410;2023-05-20T11:00:54;99416.03;;;17.70;62.92
71573;BME280;59408;51.032;9.410;2023-05-20T11:03:21;99424.06;;;17.82;63.02
71573;BME280;59408;51.032;9.410;2023-05-20T11:05:49;99423.91;;;17.68;62.40
71573;BME280;59408;51.032;9.410;2023-05-20T11:08:16;99428.22;;;17.65;62.92
71573;BME280;59408;51.032;9.410;2023-05-20T11:10:55;99421.28;;;17.49;62.78
71573;BME280;59408;51.032;9.410;2023-05-20T11:13:22;99420.38;;;17.38;62.66
71573;BME280;59408;51.032;9.410;2023-05-20T11:15:50;99420.63;;;17.59;63.81
71573;BME280;59408;51.032;9.410;2023-05-20T11:18:18;99420.63;;;17.92;63.86
71573;BME280;59408;51.032;9.410;2023-05-20T11:20:45;99414.34;;;17.95;63.55
71573;BME280;59408;51.032;9.410;2023-05-20T11:23:13;99409.13;;;18.27;62.33
71573;BME280;59408;51.032;9.410;2023-05-20T11:25:40;99411.19;;;18.37;61.67
71573;BME280;59408;51.032;9.410;2023-05-20T11:28:10;99402.97;;;18.44;59.89
71573;BME280;59408;51.032;9.410;2023-05-20T11:30:38;99411.63;;;18.43;58.78
71573;BME280;59408;51.032;9.410;2023-05-20T11:33:04;99414.88;;;18.52;60.42
71573;BME280;59408;51.032;9.410;2023-05-20T11:35:33;99424.47;;;18.65;59.78
71573;BME280;59408;51.032;9.410;2023-05-20T11:38:01;99413.59;;;18.90;59.47
71573;BME280;59408;51.032;9.410;2023-05-20T11:40:28;99409.66;;;19.78;57.96
71573;BME280;59408;51.032;9.410;2023-05-20T11:43:09;99405.44;;;20.34;55.32
71573;BME280;59408;51.032;9.410;2023-05-20T11:45:40;99390.41;;;20.56;54.91
71573;BME280;59408;51.032;9.410;2023-05-20T11:48:07;99385.50;;;21.27;52.97
71573;BME280;59408;51.032;9.410;2023-05-20T11:50:37;99390.56;;;21.54;53.83
71573;BME280;59408;51.032;9.410;2023-05-20T11:53:05;99386.53;;;21.62;54.08
71573;BME280;59408;51.032;9.410;2023-05-20T11:55:32;99390.78;;;21.88;50.80
71573;BME280;59408;51.032;9.410;2023-05-20T11:57:59;99386.28;;;22.11;51.01
71573;BME280;59408;51.032;9.410;2023-05-20T12:00:26;99380.53;;;22.33;48.93
71573;BME280;59408;51.032;9.410;2023-05-20T12:02:59;99373.31;;;21.91;51.26
71573;BME280;59408;51.032;9.410;2023-05-20T12:05:25;99372.19;;;21.81;49.91
71573;BME280;59408;51.032;9.410;2023-05-20T12:07:53;99379.81;;;21.63;52.52
71573;BME280;59408;51.032;9.410;2023-05-20T12:10:21;99361.16;;;22.26;53.06
71573;BME280;59408;51.032;9.410;2023-05-20T12:12:48;99369.34;;;22.88;51.95
71573;BME280;59408;51.032;9.410;2023-05-20T12:15:15;99369.09;;;22.27;49.36
71573;BME280;59408;51.032;9.410;2023-05-20T12:17:46;99368.16;;;21.93;52.94
71573;BME280;59408;51.032;9.410;2023-05-20T12:20:14;99370.56;;;21.87;50.27
71573;BME280;59408;51.032;9.410;2023-05-20T12:22:41;99382.81;;;20.88;52.56
71573;BME280;59408;51.032;9.410;2023-05-20T12:25:11;99376.13;;;20.33;54.30
71573;BME280;59408;51.032;9.410;2023-05-20T12:27:38;99371.81;;;20.28;54.54
71573;BME280;59408;51.032;9.410;2023-05-20T12:30:05;99381.53;;;19.58;57.11
71573;BME280;59408;51.032;9.410;2023-05-20T12:32:32;99370.75;;;19.28;57.27
71573;BME280;59408;51.032;9.410;2023-05-20T12:35:00;99375.81;;;19.15;58.03
71573;BME280;59408;51.032;9.410;2023-05-20T12:37:26;99375.31;;;18.96;58.66
71573;BME280;59408;51.032;9.410;2023-05-20T12:39:53;99366.56;;;18.83;58.12
71573;BME280;59408;51.032;9.410;2023-05-20T12:42:21;99365.41;;;18.95;60.23
71573;BME280;59408;51.032;9.410;2023-05-20T12:44:48;99359.09;;;18.94;59.00
71573;BME280;59408;51.032;9.410;2023-05-20T12:47:14;99366.84;;;18.67;61.01
71573;BME280;59408;51.032;9.410;2023-05-20T12:49:41;99363.59;;;18.55;61.45
71573;BME280;59408;51.032;9.410;2023-05-20T12:52:07;99363.94;;;18.50;61.63
71573;BME280;59408;51.032;9.410;2023-05-20T12:54:47;99365.84;;;18.97;60.78
71573;BME280;59408;51.032;9.410;2023-05-20T12:57:14;99362.69;;;18.98;61.43
71573;BME280;59408;51.032;9.410;2023-05-20T12:59:42;99355.47;;;19.63;58.54
71573;BME280;59408;51.032;9.410;2023-05-20T13:02:08;99361.03;;;20.97;57.91